createdAt,value
2022-07-27T00:01:06.031Z,98771.38
2022-07-27T00:03:32.196Z,98756.94
2022-07-27T00:05:58.370Z,98770.88
2022-07-27T00:08:24.543Z,98762.41
2022-07-27T00:10:50.679Z,98764.88
2022-07-27T00:13:16.821Z,98766.00
2022-07-27T00:15:42.981Z,98765.88
2022-07-27T00:18:09.115Z,98769.53
2022-07-27T00:20:35.279Z,98757.19
2022-07-27T00:23:01.422Z,98762.97
2022-07-27T00:25:27.833Z,98753.34
2022-07-27T00:27:54.039Z,98759.16
2022-07-27T00:30:20.165Z,98763.75
2022-07-27T00:32:46.289Z,98755.34
2022-07-27T00:35:12.448Z,98759.66
2022-07-27T00:37:38.585Z,98767.50
2022-07-27T00:40:04.747Z,98764.81
2022-07-27T00:42:30.918Z,98764.97
2022-07-27T00:44:57.063Z,98769.72
2022-07-27T00:47:23.191Z,98771.25
2022-07-27T00:49:49.342Z,98770.03
2022-07-27T00:52:15.477Z,98765.91
2022-07-27T00:54:41.619Z,98758.81
2022-07-27T00:57:07.774Z,98757.75
2022-07-27T00:59:33.918Z,98760.25
2022-07-27T01:02:00.177Z,98765.78
2022-07-27T01:04:26.415Z,98761.78
2022-07-27T01:06:52.574Z,98764.94
2022-07-27T01:09:18.726Z,98764.50
2022-07-27T01:11:44.877Z,98747.13
2022-07-27T01:14:11.017Z,98750.22
2022-07-27T01:16:37.236Z,98751.50
2022-07-27T01:19:03.446Z,98744.69
2022-07-27T01:21:34.103Z,98765.97
2022-07-27T01:24:00.350Z,98761.78
2022-07-27T01:26:26.503Z,98756.22
2022-07-27T01:28:52.639Z,98763.31
2022-07-27T01:31:18.856Z,98757.59
2022-07-27T01:33:45.025Z,98762.50
2022-07-27T01:36:11.155Z,98752.63
2022-07-27T01:38:37.278Z,98753.97
2022-07-27T01:41:03.819Z,98753.19
2022-07-27T01:43:29.951Z,98752.34
2022-07-27T01:45:56.247Z,98744.59
2022-07-27T01:48:22.500Z,98747.47
2022-07-27T01:50:48.841Z,98745.72
2022-07-27T01:53:14.980Z,98751.88
2022-07-27T01:55:41.144Z,98747.44
2022-07-27T01:58:07.341Z,98741.22
2022-07-27T02:00:33.528Z,98745.41
2022-07-27T02:02:59.690Z,98744.88
2022-07-27T02:05:25.977Z,98747.25
2022-07-27T02:07:52.256Z,98745.34
2022-07-27T02:10:18.402Z,98745.25
2022-07-27T02:12:44.530Z,98751.28
2022-07-27T02:15:15.084Z,98755.38
2022-07-27T02:17:41.765Z,98756.88
2022-07-27T02:20:08.025Z,98760.06
2022-07-27T02:22:34.152Z,98755.31
2022-07-27T02:25:00.303Z,98749.81
2022-07-27T02:27:26.438Z,98750.53
2022-07-27T02:29:52.590Z,98750.53
2022-07-27T02:32:19.031Z,98753.28
2022-07-27T02:34:45.157Z,98755.38
2022-07-27T02:37:11.312Z,98759.34
2022-07-27T02:39:37.464Z,98752.16
2022-07-27T02:42:03.598Z,98757.97
2022-07-27T02:44:29.756Z,98751.75
2022-07-27T02:46:56.440Z,98752.06
2022-07-27T02:49:22.996Z,98755.78
2022-07-27T02:51:49.221Z,98764.63
2022-07-27T02:54:15.388Z,98764.78
2022-07-27T02:56:41.518Z,98761.06
2022-07-27T02:59:07.677Z,98760.25
2022-07-27T03:01:33.873Z,98764.28
2022-07-27T03:04:00.148Z,98762.22
2022-07-27T03:06:26.325Z,98758.94
2022-07-27T03:08:52.497Z,98758.03
2022-07-27T03:11:18.654Z,98755.94
2022-07-27T03:13:44.840Z,98757.00
2022-07-27T03:16:11.043Z,98765.47
2022-07-27T03:18:37.238Z,98764.59
2022-07-27T03:21:03.402Z,98771.06
2022-07-27T03:23:29.564Z,98763.94
2022-07-27T03:25:55.728Z,98764.00
2022-07-27T03:28:21.885Z,98764.84
2022-07-27T03:30:48.133Z,98763.69
2022-07-27T03:33:14.302Z,98764.38
2022-07-27T03:35:40.427Z,98760.72
2022-07-27T03:38:06.636Z,98761.44
2022-07-27T03:40:32.948Z,98763.38
2022-07-27T03:42:59.185Z,98771.47
2022-07-27T03:45:25.374Z,98761.69
2022-07-27T03:47:51.509Z,98763.69
2022-07-27T03:50:17.639Z,98770.47
2022-07-27T03:52:45.685Z,98767.16
2022-07-27T03:55:12.038Z,98770.97
2022-07-27T03:57:38.170Z,98765.75
2022-07-27T04:00:04.313Z,98764.81
2022-07-27T04:02:30.525Z,98765.16
2022-07-27T04:04:56.714Z,98757.94
2022-07-27T04:07:22.875Z,98758.47
2022-07-27T04:09:48.995Z,98761.81
2022-07-27T04:12:16.678Z,98764.09
2022-07-27T04:14:46.044Z,98768.78
2022-07-27T04:17:12.204Z,98768.78
2022-07-27T04:19:58.305Z,98767.56
2022-07-27T04:22:24.482Z,98768.47
2022-07-27T04:24:50.622Z,98762.44
2022-07-27T04:27:16.789Z,98772.38
2022-07-27T04:29:42.993Z,98770.53
2022-07-27T04:32:09.134Z,98782.84
2022-07-27T04:34:35.294Z,98776.31
2022-07-27T04:37:01.431Z,98777.50
2022-07-27T04:39:27.574Z,98784.47
2022-07-27T04:41:53.729Z,98776.84
2022-07-27T04:44:19.858Z,98777.81
2022-07-27T04:46:45.994Z,98778.75
2022-07-27T04:49:13.152Z,98783.28
2022-07-27T04:51:39.562Z,98786.06
2022-07-27T04:54:05.681Z,98782.75
2022-07-27T04:56:31.850Z,98781.81
2022-07-27T04:58:57.985Z,98783.41
2022-07-27T05:01:24.169Z,98781.13
2022-07-27T05:03:50.498Z,98778.72
2022-07-27T05:06:16.681Z,98789.56
2022-07-27T05:08:42.835Z,98787.91
2022-07-27T05:11:08.996Z,98794.25
2022-07-27T05:13:35.126Z,98804.81
2022-07-27T05:16:01.323Z,98809.50
2022-07-27T05:18:27.569Z,98815.78
2022-07-27T05:20:53.796Z,98811.09
2022-07-27T05:23:19.948Z,98813.00
2022-07-27T05:25:46.101Z,98805.63
2022-07-27T05:28:12.259Z,98809.25
2022-07-27T05:30:38.431Z,98811.22
2022-07-27T05:33:04.585Z,98816.41
2022-07-27T05:35:30.718Z,98821.09
2022-07-27T05:37:56.882Z,98809.03
2022-07-27T05:40:23.034Z,98816.69
2022-07-27T05:42:49.184Z,98822.28
2022-07-27T05:45:15.309Z,98824.66
2022-07-27T05:47:41.732Z,98822.91
2022-07-27T05:50:07.864Z,98827.81
2022-07-27T05:52:34.008Z,98831.94
2022-07-27T05:55:00.171Z,98828.41
2022-07-27T05:57:26.290Z,98839.81
2022-07-27T05:59:52.422Z,98835.88
2022-07-27T06:02:18.573Z,98842.44
2022-07-27T06:04:44.701Z,98837.91
2022-07-27T06:07:10.837Z,98836.97
2022-07-27T06:09:36.977Z,98836.88
2022-07-27T06:12:03.107Z,98836.06
2022-07-27T06:14:29.235Z,98838.25
2022-07-27T06:16:55.432Z,98846.44
2022-07-27T06:19:21.583Z,98853.16
2022-07-27T06:21:53.465Z,98850.91
2022-07-27T06:24:20.059Z,98851.72
2022-07-27T06:26:46.197Z,98856.94
2022-07-27T06:29:12.767Z,98852.72
2022-07-27T06:31:39.119Z,98848.78
2022-07-27T06:34:11.701Z,98856.75
2022-07-27T06:36:38.123Z,98859.53
2022-07-27T06:39:04.274Z,98857.19
2022-07-27T06:41:30.407Z,98858.22
2022-07-27T06:43:56.534Z,98865.53
2022-07-27T06:46:22.741Z,98860.56
2022-07-27T06:48:48.956Z,98864.72
2022-07-27T06:51:15.115Z,98865.41
2022-07-27T06:53:41.257Z,98862.91
2022-07-27T06:56:07.544Z,98861.78
2022-07-27T06:58:33.697Z,98859.91
2022-07-27T07:00:59.939Z,98866.56
2022-07-27T07:03:26.319Z,98869.28
2022-07-27T07:05:52.474Z,98875.47
2022-07-27T07:08:18.622Z,98870.78
2022-07-27T07:10:44.801Z,98866.03
2022-07-27T07:13:10.987Z,98865.50
2022-07-27T07:15:37.146Z,98872.41
2022-07-27T07:18:03.283Z,98863.38
2022-07-27T07:20:29.429Z,98864.19
2022-07-27T07:22:55.573Z,98863.97
2022-07-27T07:25:21.697Z,98867.22
2022-07-27T07:27:48.012Z,98866.69
2022-07-27T07:30:14.192Z,98879.28
2022-07-27T07:32:40.346Z,98867.06
2022-07-27T07:35:06.470Z,98868.56
2022-07-27T07:37:33.868Z,98863.16
2022-07-27T07:40:18.330Z,98868.25
2022-07-27T07:42:46.525Z,98873.47
2022-07-27T07:45:12.681Z,98867.25
2022-07-27T07:47:38.810Z,98870.19
2022-07-27T07:50:04.976Z,98861.75
2022-07-27T07:52:31.122Z,98866.34
2022-07-27T07:54:57.255Z,98861.84
2022-07-27T07:57:23.760Z,98871.09
2022-07-27T07:59:49.900Z,98858.75
2022-07-27T08:02:16.070Z,98873.44
2022-07-27T08:04:42.323Z,98857.53
2022-07-27T08:07:08.459Z,98869.31
2022-07-27T08:09:34.598Z,98873.59
2022-07-27T08:12:02.494Z,98862.88
2022-07-27T08:14:28.622Z,98871.19
2022-07-27T08:16:54.759Z,98865.59
2022-07-27T08:19:20.901Z,98860.84
2022-07-27T08:21:47.039Z,98870.88
2022-07-27T08:24:13.193Z,98877.44
2022-07-27T08:26:39.350Z,98880.19
2022-07-27T08:29:11.180Z,98869.69
2022-07-27T08:31:52.354Z,98869.47
2022-07-27T08:34:19.443Z,98878.78
2022-07-27T08:36:45.609Z,98872.97
2022-07-27T08:39:31.798Z,98888.03
2022-07-27T08:41:57.879Z,98886.78
2022-07-27T08:44:24.030Z,98879.59
2022-07-27T08:46:50.213Z,98884.09
2022-07-27T08:49:17.140Z,98884.06
2022-07-27T08:51:47.065Z,98885.28
2022-07-27T08:54:13.565Z,98886.13
2022-07-27T08:56:40.013Z,98887.38
2022-07-27T08:59:06.150Z,98890.19
2022-07-27T09:01:32.320Z,98892.53
2022-07-27T09:03:58.499Z,98885.56
2022-07-27T09:06:24.638Z,98876.72
2022-07-27T09:08:53.341Z,98873.59
2022-07-27T09:11:19.632Z,98890.34
2022-07-27T09:13:45.767Z,98880.59
2022-07-27T09:16:18.162Z,98871.78
2022-07-27T09:18:45.155Z,98882.09
2022-07-27T09:21:11.294Z,98883.28
2022-07-27T09:23:37.456Z,98880.03
2022-07-27T09:26:10.885Z,98880.03
2022-07-27T09:28:40.712Z,98891.78
2022-07-27T09:31:06.906Z,98890.97
2022-07-27T09:33:33.075Z,98894.03
2022-07-27T09:35:59.985Z,98901.47
2022-07-27T09:38:26.149Z,98900.22
2022-07-27T09:40:52.307Z,98893.63
2022-07-27T09:44:12.327Z,98888.19
2022-07-27T09:46:07.737Z,98887.97
2022-07-27T09:48:33.969Z,98887.75
2022-07-27T09:51:02.632Z,98879.00
2022-07-27T09:53:42.889Z,98875.22
2022-07-27T09:56:09.682Z,98881.16
2022-07-27T09:58:35.853Z,98886.94
2022-07-27T10:01:02.007Z,98885.16
2022-07-27T10:03:28.146Z,98889.13
2022-07-27T10:05:54.383Z,98891.75
2022-07-27T10:08:20.526Z,98888.03
2022-07-27T10:10:46.653Z,98899.75
2022-07-27T10:13:12.813Z,98903.63
2022-07-27T10:15:39.007Z,98904.25
2022-07-27T10:18:07.326Z,98890.00
2022-07-27T10:20:33.902Z,98893.22
2022-07-27T10:23:00.042Z,98900.84
2022-07-27T10:25:26.240Z,98904.88
2022-07-27T10:27:52.403Z,98910.25
2022-07-27T10:30:24.099Z,98905.72
2022-07-27T10:32:53.927Z,98906.72
2022-07-27T10:35:20.068Z,98910.44
2022-07-27T10:37:46.207Z,98904.75
2022-07-27T10:40:12.437Z,98903.03
2022-07-27T10:42:38.622Z,98908.03
2022-07-27T10:45:04.783Z,98897.31
2022-07-27T10:47:30.942Z,98898.59
2022-07-27T10:49:57.078Z,98890.88
2022-07-27T10:52:23.235Z,98891.81
2022-07-27T10:54:52.777Z,98876.75
2022-07-27T10:57:22.966Z,98890.78
2022-07-27T11:02:35.252Z,98875.94
2022-07-27T11:05:01.400Z,98881.75
2022-07-27T11:07:35.563Z,98883.31
2022-07-27T11:10:10.151Z,98888.28
2022-07-27T11:12:36.281Z,98883.69
2022-07-27T11:15:02.446Z,98883.22
2022-07-27T11:20:14.704Z,98898.16
2022-07-27T11:25:26.983Z,98897.22
2022-07-27T11:27:53.120Z,98894.63
2022-07-27T11:30:19.274Z,98884.59
2022-07-27T11:32:45.409Z,98891.06
2022-07-27T11:35:16.308Z,98890.59
2022-07-27T11:37:45.459Z,98899.50
2022-07-27T11:40:37.451Z,98891.50
2022-07-27T11:42:57.727Z,98899.50
2022-07-27T11:45:25.115Z,98890.63
2022-07-27T11:47:51.241Z,98885.94
2022-07-27T11:50:17.390Z,98890.56
2022-07-27T11:52:43.530Z,98879.53
2022-07-27T11:55:09.677Z,98891.19
2022-07-27T11:57:40.258Z,98887.66
2022-07-27T12:00:06.458Z,98878.47
2022-07-27T12:02:32.693Z,98890.19
2022-07-27T12:05:02.962Z,98887.63
2022-07-27T12:07:29.552Z,98881.50
2022-07-27T12:09:55.685Z,98890.34
2022-07-27T12:12:21.819Z,98894.13
2022-07-27T12:14:47.993Z,98891.94
2022-07-27T12:17:14.179Z,98886.84
2022-07-27T12:19:40.378Z,98879.34
2022-07-27T12:22:06.521Z,98884.72
2022-07-27T12:24:32.651Z,98877.84
2022-07-27T12:27:01.964Z,98864.53
2022-07-27T12:29:32.167Z,98871.94
2022-07-27T12:31:58.319Z,98843.13
2022-07-27T12:34:24.464Z,98848.19
2022-07-27T12:36:50.599Z,98848.91
2022-07-27T12:39:16.732Z,98844.31
2022-07-27T12:41:42.872Z,98843.63
2022-07-27T12:44:09.028Z,98842.13
2022-07-27T12:46:35.476Z,98846.38
2022-07-27T12:49:01.726Z,98845.56
2022-07-27T12:51:27.884Z,98854.34
2022-07-27T12:53:54.018Z,98860.25
2022-07-27T12:56:27.235Z,98857.81
2022-07-27T12:58:53.937Z,98847.38
2022-07-27T13:01:20.120Z,98845.72
2022-07-27T13:03:46.355Z,98853.56
2022-07-27T13:06:13.278Z,98851.75
2022-07-27T13:08:39.492Z,98833.84
2022-07-27T13:11:05.742Z,98833.44
2022-07-27T13:13:31.882Z,98827.28
2022-07-27T13:15:58.018Z,98830.72
2022-07-27T13:18:24.352Z,98831.56
2022-07-27T13:20:50.549Z,98824.75
2022-07-27T13:23:16.702Z,98845.94
2022-07-27T13:25:43.537Z,98843.75
2022-07-27T13:28:09.817Z,98829.34
2022-07-27T13:30:35.955Z,98830.03
2022-07-27T13:33:02.114Z,98827.78
2022-07-27T13:35:28.247Z,98837.88
2022-07-27T13:37:54.411Z,98839.69
2022-07-27T13:40:20.578Z,98831.69
2022-07-27T13:42:46.711Z,98845.16
2022-07-27T13:45:12.852Z,98837.91
2022-07-27T13:47:39.022Z,98841.31
2022-07-27T13:50:05.204Z,98842.72
2022-07-27T13:52:31.359Z,98838.31
2022-07-27T13:54:57.508Z,98825.34
2022-07-27T13:57:23.634Z,98826.16
2022-07-27T13:59:49.776Z,98821.50
2022-07-27T14:02:16.017Z,98819.03
2022-07-27T14:04:46.712Z,98813.97
2022-07-27T14:07:12.849Z,98828.69
2022-07-27T14:09:38.999Z,98829.97
2022-07-27T14:12:05.142Z,98821.25
2022-07-27T14:14:31.268Z,98825.75
2022-07-27T14:16:57.993Z,98819.56
2022-07-27T14:19:24.208Z,98809.19
2022-07-27T14:21:50.367Z,98806.72
2022-07-27T14:24:16.514Z,98832.28
2022-07-27T14:26:42.640Z,98822.44
2022-07-27T14:29:08.763Z,98826.19
2022-07-27T14:31:34.987Z,98828.41
2022-07-27T14:34:01.200Z,98837.63
2022-07-27T14:36:27.349Z,98834.94
2022-07-27T14:38:53.510Z,98827.94
2022-07-27T14:41:19.659Z,98832.84
2022-07-27T14:43:45.798Z,98832.06
2022-07-27T14:46:12.044Z,98834.09
2022-07-27T14:49:04.688Z,98831.78
2022-07-27T14:51:24.390Z,98833.03
2022-07-27T14:53:50.527Z,98823.75
2022-07-27T14:56:16.652Z,98827.78
2022-07-27T14:58:42.847Z,98828.56
2022-07-27T15:01:09.080Z,98824.59
2022-07-27T15:03:35.236Z,98821.03
2022-07-27T15:06:02.009Z,98815.88
2022-07-27T15:08:28.125Z,98825.13
2022-07-27T15:10:54.262Z,98819.78
2022-07-27T15:13:20.420Z,98811.31
2022-07-27T15:15:46.568Z,98811.78
2022-07-27T15:18:13.013Z,98811.28
2022-07-27T15:20:39.667Z,98804.22
2022-07-27T15:23:05.815Z,98807.00
2022-07-27T15:25:31.962Z,98797.84
2022-07-27T15:27:58.111Z,98789.47
2022-07-27T15:30:24.258Z,98789.34
2022-07-27T15:32:50.402Z,98771.13
2022-07-27T15:35:16.568Z,98786.88
2022-07-27T15:37:42.697Z,98795.50
2022-07-27T15:40:20.641Z,98795.66
2022-07-27T15:42:46.778Z,98789.56
2022-07-27T15:45:12.975Z,98794.28
2022-07-27T15:47:39.698Z,98790.03
2022-07-27T15:50:06.038Z,98784.72
2022-07-27T15:52:32.183Z,98777.44
2022-07-27T15:54:58.334Z,98771.94
2022-07-27T15:57:24.469Z,98785.41
2022-07-27T15:59:50.595Z,98787.03
2022-07-27T16:02:16.746Z,98779.28
2022-07-27T16:04:50.835Z,98768.31
2022-07-27T16:07:16.985Z,98768.47
2022-07-27T16:09:43.662Z,98768.50
2022-07-27T16:12:09.807Z,98764.94
2022-07-27T16:14:35.926Z,98765.59
2022-07-27T16:17:02.086Z,98766.06
2022-07-27T16:19:28.222Z,98765.22
2022-07-27T16:21:56.011Z,98767.19
2022-07-27T16:24:22.313Z,98765.38
2022-07-27T16:26:48.482Z,98760.94
2022-07-27T16:29:14.954Z,98753.47
2022-07-27T16:31:41.549Z,98753.41
2022-07-27T16:34:07.782Z,98747.06
2022-07-27T16:36:38.421Z,98749.22
2022-07-27T16:39:05.494Z,98747.63
2022-07-27T16:41:31.944Z,98757.19
2022-07-27T16:43:58.087Z,98751.22
2022-07-27T16:46:24.315Z,98759.66
2022-07-27T16:48:50.512Z,98762.53
2022-07-27T16:51:16.684Z,98756.31
2022-07-27T16:53:42.876Z,98746.75
2022-07-27T16:56:09.022Z,98744.22
2022-07-27T16:58:35.162Z,98751.69
2022-07-27T17:01:01.302Z,98739.59
2022-07-27T17:03:27.441Z,98743.03
2022-07-27T17:05:53.660Z,98745.06
2022-07-27T17:08:19.856Z,98740.13
2022-07-27T17:10:46.224Z,98730.38
2022-07-27T17:13:14.428Z,98745.34
2022-07-27T17:15:40.612Z,98743.19
2022-07-27T17:18:06.836Z,98746.91
2022-07-27T17:20:35.381Z,98744.69
2022-07-27T17:23:01.973Z,98743.59
2022-07-27T17:25:28.142Z,98756.56
2022-07-27T17:27:54.299Z,98749.81
2022-07-27T17:30:20.463Z,98742.38
2022-07-27T17:32:46.619Z,98751.63
2022-07-27T17:35:12.756Z,98749.41
2022-07-27T17:38:04.471Z,98749.56
2022-07-27T17:40:25.476Z,98745.09
2022-07-27T17:42:51.715Z,98751.91
2022-07-27T17:45:17.850Z,98746.78
2022-07-27T17:47:43.995Z,98740.84
2022-07-27T17:50:10.138Z,98746.19
2022-07-27T17:52:38.356Z,98747.28
2022-07-27T17:55:04.721Z,98749.75
2022-07-27T17:57:30.877Z,98748.44
2022-07-27T17:59:57.006Z,98742.06
2022-07-27T18:02:23.213Z,98742.84
2022-07-27T18:04:49.497Z,98744.09
2022-07-27T18:07:15.702Z,98745.66
2022-07-27T18:09:41.834Z,98740.16
2022-07-27T18:12:08.813Z,98741.97
2022-07-27T18:14:34.933Z,98739.81
2022-07-27T18:17:04.606Z,98745.09
2022-07-27T18:19:30.766Z,98739.59
2022-07-27T18:21:56.907Z,98742.22
2022-07-27T18:24:23.042Z,98744.38
2022-07-27T18:26:49.333Z,98751.16
2022-07-27T18:29:17.495Z,98752.22
2022-07-27T18:31:43.705Z,98752.97
2022-07-27T18:34:12.870Z,98758.72
2022-07-27T18:36:39.283Z,98751.31
2022-07-27T18:39:05.428Z,98761.84
2022-07-27T18:41:31.587Z,98766.72
2022-07-27T18:43:57.727Z,98769.22
2022-07-27T18:46:23.952Z,98763.63
2022-07-27T18:48:50.228Z,98769.41
2022-07-27T18:51:16.431Z,98758.75
2022-07-27T18:53:42.574Z,98769.75
2022-07-27T18:56:08.734Z,98763.06
2022-07-27T18:58:34.878Z,98760.91
2022-07-27T19:01:01.014Z,98771.31
2022-07-27T19:03:27.865Z,98775.16
2022-07-27T19:05:54.195Z,98769.41
2022-07-27T19:08:20.818Z,98766.44
2022-07-27T19:10:46.966Z,98776.41
2022-07-27T19:13:13.110Z,98770.16
2022-07-27T19:15:39.248Z,98780.94
2022-07-27T19:18:06.195Z,98775.78
2022-07-27T19:20:32.335Z,98777.69
2022-07-27T19:22:58.471Z,98783.13
2022-07-27T19:25:24.632Z,98779.16
2022-07-27T19:27:50.769Z,98793.75
2022-07-27T19:30:16.903Z,98789.19
2022-07-27T19:32:44.398Z,98785.13
2022-07-27T19:35:10.541Z,98783.56
2022-07-27T19:37:36.671Z,98788.22
2022-07-27T19:40:20.216Z,98780.84
2022-07-27T19:42:48.954Z,98790.66
2022-07-27T19:45:15.098Z,98792.81
2022-07-27T19:47:41.253Z,98799.06
2022-07-27T19:50:07.435Z,98797.88
2022-07-27T19:52:33.610Z,98805.41
2022-07-27T19:54:59.764Z,98804.22
2022-07-27T19:57:25.898Z,98807.31
2022-07-27T19:59:55.075Z,98801.78
2022-07-27T20:02:22.819Z,98810.09
2022-07-27T20:04:49.008Z,98814.28
2022-07-27T20:07:15.304Z,98816.72
2022-07-27T20:09:41.486Z,98813.47
2022-07-27T20:12:07.673Z,98811.50
2022-07-27T20:14:33.847Z,98813.13
2022-07-27T20:17:00.058Z,98823.44
2022-07-27T20:19:26.205Z,98816.44
2022-07-27T20:21:52.352Z,98816.88
2022-07-27T20:24:18.482Z,98812.59
2022-07-27T20:26:48.931Z,98811.97
2022-07-27T20:29:15.777Z,98805.19
2022-07-27T20:31:42.171Z,98809.28
2022-07-27T20:34:08.289Z,98812.78
2022-07-27T20:36:34.603Z,98806.81
2022-07-27T20:39:00.741Z,98809.91
2022-07-27T20:41:26.880Z,98808.03
2022-07-27T20:43:53.737Z,98813.00
2022-07-27T20:46:19.957Z,98814.00
2022-07-27T20:48:46.225Z,98815.44
2022-07-27T20:51:12.425Z,98825.56
2022-07-27T20:53:38.553Z,98815.84
2022-07-27T20:56:04.685Z,98807.81
2022-07-27T20:58:30.828Z,98818.94
2022-07-27T21:00:57.006Z,98815.41
2022-07-27T21:03:23.164Z,98825.28
2022-07-27T21:05:49.335Z,98821.81
2022-07-27T21:08:15.475Z,98824.06
2022-07-27T21:10:41.607Z,98825.09
2022-07-27T21:13:07.769Z,98817.25
2022-07-27T21:15:34.411Z,98808.38
2022-07-27T21:18:00.638Z,98819.47
2022-07-27T21:20:26.795Z,98811.78
2022-07-27T21:22:52.916Z,98817.72
2022-07-27T21:25:19.054Z,98815.44
2022-07-27T21:27:45.205Z,98817.91
2022-07-27T21:30:13.307Z,98821.38
2022-07-27T21:32:39.440Z,98820.34
2022-07-27T21:35:07.289Z,98827.13
2022-07-27T21:37:33.608Z,98822.16
2022-07-27T21:39:59.739Z,98823.59
2022-07-27T21:42:25.893Z,98823.19
2022-07-27T21:44:52.015Z,98827.50
2022-07-27T21:47:18.136Z,98818.22
2022-07-27T21:49:44.290Z,98818.34
2022-07-27T21:52:10.414Z,98816.72
2022-07-27T21:54:36.540Z,98815.44
2022-07-27T21:57:02.690Z,98829.41
2022-07-27T21:59:28.823Z,98825.03
2022-07-27T22:01:54.957Z,98820.63
2022-07-27T22:04:21.177Z,98821.66
2022-07-27T22:06:47.337Z,98826.81
2022-07-27T22:09:13.474Z,98825.41
2022-07-27T22:11:39.623Z,98824.75
2022-07-27T22:14:05.743Z,98821.09
2022-07-27T22:16:31.975Z,98831.72
2022-07-27T22:18:58.171Z,98832.31
2022-07-27T22:21:26.131Z,98833.13
2022-07-27T22:23:52.279Z,98832.88
2022-07-27T22:26:18.439Z,98830.72
2022-07-27T22:28:44.592Z,98832.00
2022-07-27T22:31:22.871Z,98828.94
2022-07-27T22:33:49.498Z,98832.50
2022-07-27T22:36:15.638Z,98831.25
2022-07-27T22:38:41.798Z,98832.97
2022-07-27T22:41:08.014Z,98836.47
2022-07-27T22:43:34.154Z,98828.38
2022-07-27T22:46:00.354Z,98833.16
2022-07-27T22:48:26.550Z,98829.09
2022-07-27T22:50:52.693Z,98835.63
2022-07-27T22:53:18.849Z,98823.59
2022-07-27T22:55:44.998Z,98826.44
2022-07-27T22:58:11.129Z,98832.00
2022-07-27T23:00:37.310Z,98828.19
2022-07-27T23:03:03.517Z,98832.16
2022-07-27T23:05:29.690Z,98832.66
2022-07-27T23:07:55.835Z,98836.34
2022-07-27T23:10:22.016Z,98832.97
2022-07-27T23:12:48.162Z,98839.44
2022-07-27T23:15:14.316Z,98832.50
2022-07-27T23:17:40.479Z,98847.91
2022-07-27T23:20:06.610Z,98841.94
2022-07-27T23:22:32.735Z,98840.22
2022-07-27T23:25:00.518Z,98840.88
2022-07-27T23:27:26.807Z,98838.34
2022-07-27T23:29:52.942Z,98836.19
2022-07-27T23:32:19.115Z,98843.16
2022-07-27T23:34:45.258Z,98844.66
2022-07-27T23:37:11.406Z,98847.91
2022-07-27T23:39:37.559Z,98840.38
2022-07-27T23:42:03.696Z,98839.63
2022-07-27T23:44:29.848Z,98842.13
2022-07-27T23:46:56.394Z,98834.50
2022-07-27T23:49:22.592Z,98830.91
2022-07-27T23:51:48.805Z,98833.75
2022-07-27T23:54:15.394Z,98832.75
2022-07-27T23:56:41.818Z,98836.41
2022-07-27T23:59:07.955Z,98830.72
